Ifestos I — SV4139 — position and weather

sailwx.info

Track history (hours):
 
Tides and Currents Weather Stations Pressure Air Temp Water Temp Dewpoint Dewpoint Depression Visibility Wind Speed Wind Dir Waves Ship Positions

Ifestos I

Last reported at 2016-Feb-10 23:33 UTC. Time now 2016-Feb-11 00:32 UTC.
Position N 37°57' E 023°37'.

Length 30 m.

Type: Tug. MMSI: 237070500.

Date/timePositionNaut miles runAvg speedWind from/ knotsBaromVisibWave heightAir tempDewpointWater temp
2016-Feb-10 23:33N 37°57' E 023°37'0 0.0
2016-Feb-10 22:33N 37°57' E 023°37'0 0.0
2016-Feb-10 21:33N 37°57' E 023°37'0 0.0
2016-Feb-10 20:33N 37°57' E 023°37'0 0.0
2016-Feb-10 19:33N 37°57' E 023°37'0 0.0
2016-Feb-10 18:33N 37°57' E 023°37'0 0.0
2016-Feb-10 17:33N 37°57' E 023°37'0 0.0
2016-Feb-10 16:33N 37°57' E 023°37'0 0.0
2016-Feb-10 15:33N 37°57' E 023°37'0 0.0
2016-Feb-10 14:33N 37°57' E 023°37'0 0.0
2016-Feb-10 13:33N 37°57' E 023°37'1 0.6
2016-Feb-10 12:33N 37°57' E 023°36'0 0.0
2016-Feb-10 11:33N 37°57' E 023°36'0 0.3
2016-Feb-10 10:33N 37°57' E 023°36'0 0.4
2016-Feb-10 09:33N 37°57' E 023°37'0 0.0
2016-Feb-10 08:33N 37°57' E 023°37'0 0.0
2016-Feb-10 07:33N 37°57' E 023°37'0 0.0
2016-Feb-10 06:33N 37°57' E 023°37'0 0.0
2016-Feb-10 05:33N 37°57' E 023°37'0 0.0
2016-Feb-10 04:33N 37°57' E 023°37'0 0.0
2016-Feb-10 03:33N 37°57' E 023°37'0 0.0
2016-Feb-10 02:33N 37°57' E 023°37'0 0.0
2016-Feb-10 01:33N 37°57' E 023°37'0 0.0
2016-Feb-10 00:33N 37°57' E 023°37'0 0.0
2016-Feb-09 23:33N 37°57' E 023°37'0 0.0
2016-Feb-09 22:34N 37°57' E 023°37'1 0.7
2016-Feb-09 21:33N 37°57' E 023°36'0 0.1
2016-Feb-09 20:33N 37°57' E 023°36'1 0.7
2016-Feb-09 19:33N 37°57' E 023°37'0 0.0
2016-Feb-09 18:33N 37°57' E 023°37'1 1.0
2016-Feb-09 17:33N 37°57' E 023°35'0 0.3
2016-Feb-09 16:33N 37°57' E 023°35'1 1.1
2016-Feb-09 15:33N 37°57' E 023°34'5 5.0
2016-Feb-09 14:33N 38°02' E 023°32'1 0.8
2016-Feb-09 13:33N 38°02' E 023°33'1 0.9
2016-Feb-09 12:33N 38°01' E 023°34'0 0.0
2016-Feb-09 11:33N 38°01' E 023°34'1 0.5
2016-Feb-09 10:34N 38°01' E 023°34'3 3.0
2016-Feb-09 09:33N 37°58' E 023°33'1 0.6
2016-Feb-09 08:33N 37°58' E 023°34'2 2.3
2016-Feb-09 07:34N 37°57' E 023°37'0 0.0
2016-Feb-09 06:33N 37°57' E 023°37'0 0.0
2016-Feb-09 05:33N 37°57' E 023°37'0 0.0
2016-Feb-09 04:33N 37°57' E 023°37'0 0.0
2016-Feb-09 03:17N 37°57' E 023°37'0 0.0
2016-Feb-09 02:33N 37°57' E 023°37'0 0.0
2016-Feb-09 01:33N 37°57' E 023°37'0 0.0
2016-Feb-09 00:33N 37°57' E 023°37'0 0.0
2016-Feb-08 23:33N 37°57' E 023°37'0 0.0
2016-Feb-08 22:33N 37°57' E 023°37'0 0.0
2016-Feb-08 21:33N 37°57' E 023°37'0 0.0
2016-Feb-08 20:33N 37°57' E 023°37'0 0.0
2016-Feb-08 19:33N 37°57' E 023°37'0 0.0
2016-Feb-08 18:33N 37°57' E 023°37'0 0.0
2016-Feb-08 17:33N 37°57' E 023°37'0 0.0
2016-Feb-08 16:33N 37°57' E 023°37'0 0.0
2016-Feb-08 15:33N 37°57' E 023°37'0 0.0
2016-Feb-08 14:33N 37°57' E 023°37'0 0.0
2016-Feb-08 13:33N 37°57' E 023°37'0 0.0
2016-Feb-08 12:33N 37°57' E 023°37'1 0.6
2016-Feb-08 11:33N 37°57' E 023°36'0 0.4
2016-Feb-08 10:33N 37°57' E 023°36'1 0.6
2016-Feb-08 09:33N 37°57' E 023°37'0 0.0
2016-Feb-08 08:33N 37°57' E 023°37'0 0.0
2016-Feb-08 07:33N 37°57' E 023°37'0 0.0
2016-Feb-08 06:33N 37°57' E 023°37'0 0.0
2016-Feb-08 05:33N 37°57' E 023°37'0 0.0
2016-Feb-08 04:33N 37°57' E 023°37'0 0.0
2016-Feb-07 04:33N 37°57' E 023°37'0 0.0
2016-Feb-07 03:33N 37°57' E 023°37'0 0.0
2016-Feb-07 02:33N 37°57' E 023°37'0 0.0
2016-Feb-07 01:33N 37°57' E 023°37'0 0.0
2016-Feb-07 00:33N 37°57' E 023°37'0 0.0
2016-Feb-06 23:33N 37°57' E 023°37'0 0.0
2016-Feb-06 22:34N 37°57' E 023°37'0 0.0
2016-Feb-06 21:33N 37°57' E 023°37'0 0.0
2016-Feb-06 20:33N 37°57' E 023°37'0 0.0
2016-Feb-06 19:33N 37°57' E 023°37'0 0.0
2016-Feb-06 18:33N 37°57' E 023°37'0 0.0
2016-Feb-06 17:34N 37°57' E 023°37'1 0.6
2016-Feb-06 16:33N 37°57' E 023°36'1 0.6
2016-Feb-06 15:34N 37°57' E 023°37'0 0.0
2016-Feb-06 14:33N 37°57' E 023°37'0 0.0
2016-Feb-06 13:33N 37°57' E 023°37'0 0.0
2016-Feb-06 12:34N 37°57' E 023°37'1 1.1
2016-Feb-06 11:33N 37°57' E 023°35'1 1.0
2016-Feb-06 10:33N 37°58' E 023°36'1 1.1
2016-Feb-06 09:34N 37°57' E 023°35'0 0.0
2016-Feb-06 08:33N 37°57' E 023°35'0 0.1
2016-Feb-06 07:33N 37°57' E 023°35'1 0.9
2016-Feb-06 06:33N 37°57' E 023°36'1 0.6
2016-Feb-06 05:34N 37°57' E 023°35'0 0.1
2016-Feb-06 04:33N 37°57' E 023°35'1 1.0
2016-Feb-06 03:32N 37°57' E 023°37'0 0.0
2016-Feb-06 02:33N 37°57' E 023°37'0 0.0
2016-Feb-06 01:33N 37°57' E 023°37'0 0.0
2016-Feb-06 00:33N 37°57' E 023°37'0 0.0
2016-Feb-05 23:32N 37°57' E 023°37'0 0.0
2016-Feb-05 22:32N 37°57' E 023°37'0 0.0
2016-Feb-05 21:33N 37°57' E 023°37'0 0.0
2016-Feb-05 20:33N 37°57' E 023°37'0 0.0
2016-Feb-05 19:33N 37°57' E 023°37'0 0.0
2016-Feb-05 18:33N 37°57' E 023°37'0 0.0
2016-Feb-05 17:34N 37°57' E 023°37'1 1.0
2016-Feb-05 16:33N 37°57' E 023°35'0 0.2
2016-Feb-05 15:33N 37°57' E 023°35'1 1.2
2016-Feb-05 14:34N 37°57' E 023°34'0 0.2
2016-Feb-05 13:33N 37°58' E 023°34'2 1.7
2016-Feb-05 12:33N 37°57' E 023°36'0 0.3
2016-Feb-05 11:33N 37°57' E 023°36'1 0.5
2016-Feb-05 10:33N 37°57' E 023°36'0 0.3
2016-Feb-05 09:33N 37°57' E 023°36'1 0.8
2016-Feb-05 08:34N 37°57' E 023°35'1 0.1
2016-Feb-04 13:23N 37°57' E 023°37'0 0.0
2016-Feb-04 12:33N 37°57' E 023°37'0 0.0
2016-Feb-04 11:33N 37°57' E 023°37'0 0.0
2016-Feb-04 10:33N 37°57' E 023°37'0 0.0
2016-Feb-04 09:33N 37°57' E 023°37'0 0.0
2016-Feb-04 08:33N 37°57' E 023°37'0 0.0
2016-Feb-04 07:33N 37°57' E 023°37'0 0.0
2016-Feb-04 06:33N 37°57' E 023°37'0 0.0
2016-Feb-04 05:31N 37°57' E 023°37'0 0.0
2016-Feb-04 04:33N 37°57' E 023°37'0 0.0
2016-Feb-04 03:34N 37°57' E 023°37'0 0.0
2016-Feb-04 02:33N 37°57' E 023°37'0 0.0
2016-Feb-04 01:33N 37°57' E 023°37'0 0.0
2016-Feb-04 00:33N 37°57' E 023°37'0 0.0
2016-Feb-03 23:33N 37°57' E 023°37'0 0.0
2016-Feb-03 22:33N 37°57' E 023°37'0 0.0
2016-Feb-03 21:33N 37°57' E 023°37'0 0.0
2016-Feb-03 20:10N 37°57' E 023°37'1 1.1
2016-Feb-03 19:33N 37°57' E 023°36'1 0.6
2016-Feb-03 18:33N 37°58' E 023°36'0 0.1
2016-Feb-03 17:33N 37°57' E 023°37'0 0.0
2016-Feb-03 16:33N 37°57' E 023°37'0 0.0
2016-Feb-03 15:34N 37°57' E 023°37'0 0.0
2016-Feb-03 14:34N 37°57' E 023°37'0 0.0
2016-Feb-03 13:33N 37°57' E 023°37'0 0.3
2016-Feb-03 12:33N 37°57' E 023°36'0 0.3
2016-Feb-03 11:33N 37°57' E 023°36'0 0.3
2016-Feb-03 10:33N 37°57' E 023°37'0 0.4
2016-Feb-03 09:33N 37°57' E 023°36'0 0.4
2016-Feb-03 08:33N 37°57' E 023°37'0 0.0
2016-Feb-03 07:33N 37°57' E 023°37'0 0.0
2016-Feb-03 06:33N 37°57' E 023°37'1 1.1
2016-Feb-03 05:33N 37°57' E 023°35'1 0.5
2016-Feb-03 04:33N 37°57' E 023°36'1 0.7
2016-Feb-03 03:33N 37°57' E 023°37'0 0.0
2016-Feb-03 02:34N 37°57' E 023°37'0 0.0
2016-Feb-03 01:33N 37°57' E 023°37'0 0.0
2016-Feb-03 00:33N 37°57' E 023°37'0 0.0
2016-Feb-02 23:33N 37°57' E 023°37'0 0.0
2016-Feb-02 22:33N 37°57' E 023°37'0 0.0
2016-Feb-02 21:33N 37°57' E 023°37'0 0.0
2016-Feb-02 20:33N 37°57' E 023°37'0 0.0
2016-Feb-02 19:33N 37°57' E 023°37'0 0.0
2016-Feb-02 18:33N 37°57' E 023°37'0 0.0
2016-Feb-02 17:33N 37°57' E 023°37'0 0.0
2016-Feb-02 16:33N 37°57' E 023°37'0 0.0
2016-Feb-02 15:34N 37°57' E 023°37'1 1.4
2016-Feb-02 14:33N 37°57' E 023°35'0 0.0
2016-Feb-02 13:33N 37°57' E 023°35'0 0.0
2016-Feb-02 12:33N 37°57' E 023°35'0 0.0
2016-Feb-02 11:33N 37°57' E 023°35'0 0.0
2016-Feb-02 10:34N 37°57' E 023°35'0 0.0
2016-Feb-02 09:33N 37°57' E 023°35'1 0.7
2016-Feb-02 08:33N 37°57' E 023°36'0 0.3
2016-Feb-02 07:33N 37°57' E 023°36'1 0.6
2016-Feb-02 06:32N 37°57' E 023°37'1 0.7
2016-Feb-02 05:34N 37°57' E 023°36'1 0.5
2016-Feb-02 04:33N 37°58' E 023°36'0 0.3
2016-Feb-02 03:33N 37°57' E 023°37'0 0.0
2016-Feb-02 02:33N 37°57' E 023°37'0 0.0
2016-Feb-02 01:33N 37°57' E 023°37'0 0.0
2016-Feb-02 00:32N 37°57' E 023°37'0 0.0
2016-Feb-01 23:33N 37°57' E 023°37'0 0.0
2016-Feb-01 22:33N 37°57' E 023°37'0 0.0
2016-Feb-01 21:33N 37°57' E 023°37'0 0.0
2016-Feb-01 20:33N 37°57' E 023°37'0 0.0
2016-Feb-01 19:32N 37°57' E 023°37'0 0.0
2016-Feb-01 18:33N 37°57' E 023°37'0 0.0
2016-Feb-01 17:33N 37°57' E 023°37'0 0.0
2016-Feb-01 16:32N 37°57' E 023°37'0 0.0
2016-Feb-01 15:33N 37°57' E 023°37'0 0.0
2016-Feb-01 14:33N 37°57' E 023°37'1 0.8
2016-Feb-01 13:33N 37°57' E 023°36'6 5.7
2016-Feb-01 12:33N 38°02' E 023°32'0 0.0
2016-Feb-01 11:33N 38°02' E 023°32'0 0.0
2016-Feb-01 10:33N 38°02' E 023°32'0 0.0
2016-Feb-01 09:34N 38°02' E 023°32'2 1.8
2016-Feb-01 08:33N 38°02' E 023°30'0 0.2
2016-Feb-01 07:34N 38°02' E 023°30'0 0.3
2016-Feb-01 06:34N 38°02' E 023°30'2 1.9
2016-Feb-01 05:33N 38°01' E 023°32'4 4.4
2016-Feb-01 04:33N 37°57' E 023°36'1 0.7
2016-Feb-01 03:34N 37°57' E 023°37'0 0.0
2016-Feb-01 02:33N 37°57' E 023°37'0 0.0
2016-Feb-01 01:33N 37°57' E 023°37'0 0.0
2016-Feb-01 00:33N 37°57' E 023°37'  
Track history (hours):
 
Tides and Currents Weather Stations Pressure Air Temp Water Temp Dewpoint Dewpoint Depression Visibility Wind Speed Wind Dir Waves Ship Positions

Ifestos I

Last reported at 2016-Feb-10 23:33 UTC. Time now 2016-Feb-11 00:32 UTC.
Position N 37°57' E 023°37'.

Length 30 m.

Type: Tug. MMSI: 237070500.

Date/timePositionNaut miles runAvg speedWind from/ knotsBaromVisibWave heightAir tempDewpointWater temp
2016-Feb-10 23:33N 37°57' E 023°37'0 0.0
2016-Feb-10 22:33N 37°57' E 023°37'0 0.0
2016-Feb-10 21:33N 37°57' E 023°37'0 0.0
2016-Feb-10 20:33N 37°57' E 023°37'0 0.0
2016-Feb-10 19:33N 37°57' E 023°37'0 0.0
2016-Feb-10 18:33N 37°57' E 023°37'0 0.0
2016-Feb-10 17:33N 37°57' E 023°37'0 0.0
2016-Feb-10 16:33N 37°57' E 023°37'0 0.0
2016-Feb-10 15:33N 37°57' E 023°37'0 0.0
2016-Feb-10 14:33N 37°57' E 023°37'0 0.0
2016-Feb-10 13:33N 37°57' E 023°37'1 0.6
2016-Feb-10 12:33N 37°57' E 023°36'0 0.0
2016-Feb-10 11:33N 37°57' E 023°36'0 0.3
2016-Feb-10 10:33N 37°57' E 023°36'0 0.4
2016-Feb-10 09:33N 37°57' E 023°37'0 0.0
2016-Feb-10 08:33N 37°57' E 023°37'0 0.0
2016-Feb-10 07:33N 37°57' E 023°37'0 0.0
2016-Feb-10 06:33N 37°57' E 023°37'0 0.0
2016-Feb-10 05:33N 37°57' E 023°37'0 0.0
2016-Feb-10 04:33N 37°57' E 023°37'0 0.0
2016-Feb-10 03:33N 37°57' E 023°37'0 0.0
2016-Feb-10 02:33N 37°57' E 023°37'0 0.0
2016-Feb-10 01:33N 37°57' E 023°37'0 0.0
2016-Feb-10 00:33N 37°57' E 023°37'0 0.0
2016-Feb-09 23:33N 37°57' E 023°37'0 0.0
2016-Feb-09 22:34N 37°57' E 023°37'1 0.7
2016-Feb-09 21:33N 37°57' E 023°36'0 0.1
2016-Feb-09 20:33N 37°57' E 023°36'1 0.7
2016-Feb-09 19:33N 37°57' E 023°37'0 0.0
2016-Feb-09 18:33N 37°57' E 023°37'1 1.0
2016-Feb-09 17:33N 37°57' E 023°35'0 0.3
2016-Feb-09 16:33N 37°57' E 023°35'1 1.1
2016-Feb-09 15:33N 37°57' E 023°34'5 5.0
2016-Feb-09 14:33N 38°02' E 023°32'1 0.8
2016-Feb-09 13:33N 38°02' E 023°33'1 0.9
2016-Feb-09 12:33N 38°01' E 023°34'0 0.0
2016-Feb-09 11:33N 38°01' E 023°34'1 0.5
2016-Feb-09 10:34N 38°01' E 023°34'3 3.0
2016-Feb-09 09:33N 37°58' E 023°33'1 0.6
2016-Feb-09 08:33N 37°58' E 023°34'2 2.3
2016-Feb-09 07:34N 37°57' E 023°37'0 0.0
2016-Feb-09 06:33N 37°57' E 023°37'0 0.0
2016-Feb-09 05:33N 37°57' E 023°37'0 0.0
2016-Feb-09 04:33N 37°57' E 023°37'0 0.0
2016-Feb-09 03:17N 37°57' E 023°37'0 0.0
2016-Feb-09 02:33N 37°57' E 023°37'0 0.0
2016-Feb-09 01:33N 37°57' E 023°37'0 0.0
2016-Feb-09 00:33N 37°57' E 023°37'0 0.0
2016-Feb-08 23:33N 37°57' E 023°37'0 0.0
2016-Feb-08 22:33N 37°57' E 023°37'0 0.0
2016-Feb-08 21:33N 37°57' E 023°37'0 0.0
2016-Feb-08 20:33N 37°57' E 023°37'0 0.0
2016-Feb-08 19:33N 37°57' E 023°37'0 0.0
2016-Feb-08 18:33N 37°57' E 023°37'0 0.0
2016-Feb-08 17:33N 37°57' E 023°37'0 0.0
2016-Feb-08 16:33N 37°57' E 023°37'0 0.0
2016-Feb-08 15:33N 37°57' E 023°37'0 0.0
2016-Feb-08 14:33N 37°57' E 023°37'0 0.0
2016-Feb-08 13:33N 37°57' E 023°37'0 0.0
2016-Feb-08 12:33N 37°57' E 023°37'1 0.6
2016-Feb-08 11:33N 37°57' E 023°36'0 0.4
2016-Feb-08 10:33N 37°57' E 023°36'1 0.6
2016-Feb-08 09:33N 37°57' E 023°37'0 0.0
2016-Feb-08 08:33N 37°57' E 023°37'0 0.0
2016-Feb-08 07:33N 37°57' E 023°37'0 0.0
2016-Feb-08 06:33N 37°57' E 023°37'0 0.0
2016-Feb-08 05:33N 37°57' E 023°37'0 0.0
2016-Feb-08 04:33N 37°57' E 023°37'0 0.0
2016-Feb-07 04:33N 37°57' E 023°37'0 0.0
2016-Feb-07 03:33N 37°57' E 023°37'0 0.0
2016-Feb-07 02:33N 37°57' E 023°37'0 0.0
2016-Feb-07 01:33N 37°57' E 023°37'0 0.0
2016-Feb-07 00:33N 37°57' E 023°37'0 0.0
2016-Feb-06 23:33N 37°57' E 023°37'0 0.0
2016-Feb-06 22:34N 37°57' E 023°37'0 0.0
2016-Feb-06 21:33N 37°57' E 023°37'0 0.0
2016-Feb-06 20:33N 37°57' E 023°37'0 0.0
2016-Feb-06 19:33N 37°57' E 023°37'0 0.0
2016-Feb-06 18:33N 37°57' E 023°37'0 0.0
2016-Feb-06 17:34N 37°57' E 023°37'1 0.6
2016-Feb-06 16:33N 37°57' E 023°36'1 0.6
2016-Feb-06 15:34N 37°57' E 023°37'0 0.0
2016-Feb-06 14:33N 37°57' E 023°37'0 0.0
2016-Feb-06 13:33N 37°57' E 023°37'0 0.0
2016-Feb-06 12:34N 37°57' E 023°37'1 1.1
2016-Feb-06 11:33N 37°57' E 023°35'1 1.0
2016-Feb-06 10:33N 37°58' E 023°36'1 1.1
2016-Feb-06 09:34N 37°57' E 023°35'0 0.0
2016-Feb-06 08:33N 37°57' E 023°35'0 0.1
2016-Feb-06 07:33N 37°57' E 023°35'1 0.9
2016-Feb-06 06:33N 37°57' E 023°36'1 0.6
2016-Feb-06 05:34N 37°57' E 023°35'0 0.1
2016-Feb-06 04:33N 37°57' E 023°35'1 1.0
2016-Feb-06 03:32N 37°57' E 023°37'0 0.0
2016-Feb-06 02:33N 37°57' E 023°37'0 0.0
2016-Feb-06 01:33N 37°57' E 023°37'0 0.0
2016-Feb-06 00:33N 37°57' E 023°37'0 0.0
2016-Feb-05 23:32N 37°57' E 023°37'0 0.0
2016-Feb-05 22:32N 37°57' E 023°37'0 0.0
2016-Feb-05 21:33N 37°57' E 023°37'0 0.0
2016-Feb-05 20:33N 37°57' E 023°37'0 0.0
2016-Feb-05 19:33N 37°57' E 023°37'0 0.0
2016-Feb-05 18:33N 37°57' E 023°37'0 0.0
2016-Feb-05 17:34N 37°57' E 023°37'1 1.0
2016-Feb-05 16:33N 37°57' E 023°35'0 0.2
2016-Feb-05 15:33N 37°57' E 023°35'1 1.2
2016-Feb-05 14:34N 37°57' E 023°34'0 0.2
2016-Feb-05 13:33N 37°58' E 023°34'2 1.7
2016-Feb-05 12:33N 37°57' E 023°36'0 0.3
2016-Feb-05 11:33N 37°57' E 023°36'1 0.5
2016-Feb-05 10:33N 37°57' E 023°36'0 0.3
2016-Feb-05 09:33N 37°57' E 023°36'1 0.8
2016-Feb-05 08:34N 37°57' E 023°35'1 0.1
2016-Feb-04 13:23N 37°57' E 023°37'0 0.0
2016-Feb-04 12:33N 37°57' E 023°37'0 0.0
2016-Feb-04 11:33N 37°57' E 023°37'0 0.0
2016-Feb-04 10:33N 37°57' E 023°37'0 0.0
2016-Feb-04 09:33N 37°57' E 023°37'0 0.0
2016-Feb-04 08:33N 37°57' E 023°37'0 0.0
2016-Feb-04 07:33N 37°57' E 023°37'0 0.0
2016-Feb-04 06:33N 37°57' E 023°37'0 0.0
2016-Feb-04 05:31N 37°57' E 023°37'0 0.0
2016-Feb-04 04:33N 37°57' E 023°37'0 0.0
2016-Feb-04 03:34N 37°57' E 023°37'0 0.0
2016-Feb-04 02:33N 37°57' E 023°37'0 0.0
2016-Feb-04 01:33N 37°57' E 023°37'0 0.0
2016-Feb-04 00:33N 37°57' E 023°37'0 0.0
2016-Feb-03 23:33N 37°57' E 023°37'0 0.0
2016-Feb-03 22:33N 37°57' E 023°37'0 0.0
2016-Feb-03 21:33N 37°57' E 023°37'0 0.0
2016-Feb-03 20:10N 37°57' E 023°37'1 1.1
2016-Feb-03 19:33N 37°57' E 023°36'1 0.6
2016-Feb-03 18:33N 37°58' E 023°36'0 0.1
2016-Feb-03 17:33N 37°57' E 023°37'0 0.0
2016-Feb-03 16:33N 37°57' E 023°37'0 0.0
2016-Feb-03 15:34N 37°57' E 023°37'0 0.0
2016-Feb-03 14:34N 37°57' E 023°37'0 0.0
2016-Feb-03 13:33N 37°57' E 023°37'0 0.3
2016-Feb-03 12:33N 37°57' E 023°36'0 0.3
2016-Feb-03 11:33N 37°57' E 023°36'0 0.3
2016-Feb-03 10:33N 37°57' E 023°37'0 0.4
2016-Feb-03 09:33N 37°57' E 023°36'0 0.4
2016-Feb-03 08:33N 37°57' E 023°37'0 0.0
2016-Feb-03 07:33N 37°57' E 023°37'0 0.0
2016-Feb-03 06:33N 37°57' E 023°37'1 1.1
2016-Feb-03 05:33N 37°57' E 023°35'1 0.5
2016-Feb-03 04:33N 37°57' E 023°36'1 0.7
2016-Feb-03 03:33N 37°57' E 023°37'0 0.0
2016-Feb-03 02:34N 37°57' E 023°37'0 0.0
2016-Feb-03 01:33N 37°57' E 023°37'0 0.0
2016-Feb-03 00:33N 37°57' E 023°37'0 0.0
2016-Feb-02 23:33N 37°57' E 023°37'0 0.0
2016-Feb-02 22:33N 37°57' E 023°37'0 0.0
2016-Feb-02 21:33N 37°57' E 023°37'0 0.0
2016-Feb-02 20:33N 37°57' E 023°37'0 0.0
2016-Feb-02 19:33N 37°57' E 023°37'0 0.0
2016-Feb-02 18:33N 37°57' E 023°37'0 0.0
2016-Feb-02 17:33N 37°57' E 023°37'0 0.0
2016-Feb-02 16:33N 37°57' E 023°37'0 0.0
2016-Feb-02 15:34N 37°57' E 023°37'1 1.4
2016-Feb-02 14:33N 37°57' E 023°35'0 0.0
2016-Feb-02 13:33N 37°57' E 023°35'0 0.0
2016-Feb-02 12:33N 37°57' E 023°35'0 0.0
2016-Feb-02 11:33N 37°57' E 023°35'0 0.0
2016-Feb-02 10:34N 37°57' E 023°35'0 0.0
2016-Feb-02 09:33N 37°57' E 023°35'1 0.7
2016-Feb-02 08:33N 37°57' E 023°36'0 0.3
2016-Feb-02 07:33N 37°57' E 023°36'1 0.6
2016-Feb-02 06:32N 37°57' E 023°37'1 0.7
2016-Feb-02 05:34N 37°57' E 023°36'1 0.5
2016-Feb-02 04:33N 37°58' E 023°36'0 0.3
2016-Feb-02 03:33N 37°57' E 023°37'0 0.0
2016-Feb-02 02:33N 37°57' E 023°37'0 0.0
2016-Feb-02 01:33N 37°57' E 023°37'0 0.0
2016-Feb-02 00:32N 37°57' E 023°37'0 0.0
2016-Feb-01 23:33N 37°57' E 023°37'0 0.0
2016-Feb-01 22:33N 37°57' E 023°37'0 0.0
2016-Feb-01 21:33N 37°57' E 023°37'0 0.0
2016-Feb-01 20:33N 37°57' E 023°37'0 0.0
2016-Feb-01 19:32N 37°57' E 023°37'0 0.0
2016-Feb-01 18:33N 37°57' E 023°37'0 0.0
2016-Feb-01 17:33N 37°57' E 023°37'0 0.0
2016-Feb-01 16:32N 37°57' E 023°37'0 0.0
2016-Feb-01 15:33N 37°57' E 023°37'0 0.0
2016-Feb-01 14:33N 37°57' E 023°37'1 0.8
2016-Feb-01 13:33N 37°57' E 023°36'6 5.7
2016-Feb-01 12:33N 38°02' E 023°32'0 0.0
2016-Feb-01 11:33N 38°02' E 023°32'0 0.0
2016-Feb-01 10:33N 38°02' E 023°32'0 0.0
2016-Feb-01 09:34N 38°02' E 023°32'2 1.8
2016-Feb-01 08:33N 38°02' E 023°30'0 0.2
2016-Feb-01 07:34N 38°02' E 023°30'0 0.3
2016-Feb-01 06:34N 38°02' E 023°30'2 1.9
2016-Feb-01 05:33N 38°01' E 023°32'4 4.4
2016-Feb-01 04:33N 37°57' E 023°36'1 0.7
2016-Feb-01 03:34N 37°57' E 023°37'0 0.0
2016-Feb-01 02:33N 37°57' E 023°37'0 0.0
2016-Feb-01 01:33N 37°57' E 023°37'0 0.0
2016-Feb-01 00:33N 37°57' E 023°37'  

Dump ship's entire track history